This is the latest recevied weather packets stored in our database for station/object W4DEX-2. If no packets are shown the sender has not sent any weather packets the latest 10 day(s).
| Time | Temp. | Humidity | Pressure | Rain* | Wind** | Luminosity | Snow |
|---|---|---|---|---|---|---|---|
| 1778108702 | 23.89° C | 60% | 1011.5 hPa | 0 mm | 5.36 m/s, 169° | - | - |
| 1778108403 | 23.89° C | 60% | 1011.6 hPa | 0 mm | 4.92 m/s, 181° | - | - |
| 1778108102 | 23.89° C | 59% | 1011.5 hPa | 0 mm | 4.92 m/s, 178° | - | - |
| 1778107802 | 23.89° C | 59% | 1011.7 hPa | 0 mm | 4.47 m/s, 178° | - | - |
| 1778107502 | 24.44° C | 57% | 1011.4 hPa | 0 mm | 4.92 m/s, 187° | - | - |
| 1778106902 | 25° C | 57% | 1011.5 hPa | 0 mm | 4.92 m/s, 176° | - | - |
| 1778106602 | 25° C | 57% | 1011.5 hPa | 0 mm | 4.92 m/s, 179° | - | - |
| 1778105702 | 25.56° C | 54% | 1011.3 hPa | 0 mm | 4.92 m/s, 203° | - | - |
| 1778105402 | 25° C | 57% | 1011.5 hPa | 0 mm | 4.47 m/s, 189° | - | - |
| 1778105103 | 24.44° C | 57% | 1011.7 hPa | 0 mm | 4.47 m/s, 196° | - | - |
| 1778104803 | 25° C | 56% | 1011.6 hPa | 0 mm | 4.47 m/s, 206° | - | - |
| 1778104504 | 25° C | 57% | 1011.7 hPa | 0 mm | 4.92 m/s, 173° | - | - |
| 1778103902 | 26.11° C | 56% | 1011.4 hPa | 0 mm | 5.36 m/s, 186° | - | - |
| 1778103602 | 25.56° C | 54% | 1011.3 hPa | 0 mm | 5.81 m/s, 180° | - | - |
| 1778103303 | 25.56° C | 55% | 1011.3 hPa | 0 mm | 4.92 m/s, 182° | - | - |
| 1778103003 | 25° C | 56% | 1011.5 hPa | 0 mm | 5.36 m/s, 186° | - | - |
| 1778101502 | 25° C | 59% | 1011.5 hPa | 0 mm | 4.92 m/s, 178° | - | - |
| 1778101202 | 25.56° C | 58% | 1011.6 hPa | 0 mm | 4.92 m/s, 195° | - | - |
| 1778100902 | 25.56° C | 58% | 1011.5 hPa | 0 mm | 4.92 m/s, 183° | - | - |
| 1778100603 | 25° C | 60% | 1011.7 hPa | 0 mm | 4.47 m/s, 182° | - | - |
| 1778100302 | 24.44° C | 61% | 1011.7 hPa | 0 mm | 4.92 m/s, 178° | - | - |
| 1778099402 | 23.89° C | 68% | 1011.8 hPa | 0 mm | 4.47 m/s, 180° | - | - |
| 1778099102 | 23.89° C | 70% | 1011.7 hPa | 0 mm | 4.47 m/s, 183° | - | - |
| 1778098803 | 22.78° C | 70% | 1011.6 hPa | 0 mm | 4.02 m/s, 179° | - | - |
| 1778097602 | 22.22° C | 73% | 1011.9 hPa | 0 mm | 4.47 m/s, 180° | - | - |
* Rain latest hour (hover to see other rain measurements)
** Current wind speed in m/s (hover to see current wind gust speed)